sensor_id;sensor_type;location;lat;lon;timestamp;temperature;humidity
5848;DHT22;8756;49.29324300;8.70599800;2022-07-30T00:01:39;21.50;99.90
5848;DHT22;8756;49.29324300;8.70599800;2022-07-30T00:04:05;21.50;99.90
5848;DHT22;8756;49.29324300;8.70599800;2022-07-30T00:06:31;21.50;99.90
5848;DHT22;8756;49.29324300;8.70599800;2022-07-30T00:08:57;21.50;99.90
5848;DHT22;8756;49.29324300;8.70599800;2022-07-30T00:11:23;21.50;99.90
5848;DHT22;8756;49.29324300;8.70599800;2022-07-30T00:13:48;21.50;99.90
5848;DHT22;8756;49.29324300;8.70599800;2022-07-30T00:16:14;21.50;99.90
5848;DHT22;8756;49.29324300;8.70599800;2022-07-30T00:18:40;21.50;99.90
5848;DHT22;8756;49.29324300;8.70599800;2022-07-30T00:21:05;21.40;99.90
5848;DHT22;8756;49.29324300;8.70599800;2022-07-30T00:23:31;21.40;99.90
5848;DHT22;8756;49.29324300;8.70599800;2022-07-30T00:25:57;21.40;99.90
5848;DHT22;8756;49.29324300;8.70599800;2022-07-30T00:28:22;21.40;99.90
5848;DHT22;8756;49.29324300;8.70599800;2022-07-30T00:30:48;21.40;99.90
5848;DHT22;8756;49.29324300;8.70599800;2022-07-30T00:33:14;21.40;99.90
5848;DHT22;8756;49.29324300;8.70599800;2022-07-30T00:35:39;21.40;99.90
5848;DHT22;8756;49.29324300;8.70599800;2022-07-30T00:38:05;21.30;99.90
5848;DHT22;8756;49.29324300;8.70599800;2022-07-30T00:40:31;21.30;99.90
5848;DHT22;8756;49.29324300;8.70599800;2022-07-30T00:42:56;21.20;99.90
5848;DHT22;8756;49.29324300;8.70599800;2022-07-30T00:45:22;21.20;99.90
5848;DHT22;8756;49.29324300;8.70599800;2022-07-30T00:47:48;21.10;99.90
5848;DHT22;8756;49.29324300;8.70599800;2022-07-30T00:50:14;21.10;99.90
5848;DHT22;8756;49.29324300;8.70599800;2022-07-30T00:52:41;21.10;99.90
5848;DHT22;8756;49.29324300;8.70599800;2022-07-30T00:55:08;21.20;99.90
5848;DHT22;8756;49.29324300;8.70599800;2022-07-30T00:57:35;21.10;99.90
5848;DHT22;8756;49.29324300;8.70599800;2022-07-30T01:00:00;21.10;99.90
5848;DHT22;8756;49.29324300;8.70599800;2022-07-30T01:02:26;21.20;99.90
5848;DHT22;8756;49.29324300;8.70599800;2022-07-30T01:04:51;21.20;99.90
5848;DHT22;8756;49.29324300;8.70599800;2022-07-30T01:07:17;21.20;99.90
5848;DHT22;8756;49.29324300;8.70599800;2022-07-30T01:09:43;21.20;99.90
5848;DHT22;8756;49.29324300;8.70599800;2022-07-30T01:12:09;21.20;99.90
5848;DHT22;8756;49.29324300;8.70599800;2022-07-30T01:14:36;21.10;99.90
5848;DHT22;8756;49.29324300;8.70599800;2022-07-30T01:17:02;21.20;99.90
5848;DHT22;8756;49.29324300;8.70599800;2022-07-30T01:19:32;21.20;99.90
5848;DHT22;8756;49.29324300;8.70599800;2022-07-30T01:22:32;21.10;99.90
5848;DHT22;8756;49.29324300;8.70599800;2022-07-30T01:25:23;21.10;99.90
5848;DHT22;8756;49.29324300;8.70599800;2022-07-30T01:28:12;21.00;99.90
5848;DHT22;8756;49.29324300;8.70599800;2022-07-30T01:30:41;21.00;99.90
5848;DHT22;8756;49.29324300;8.70599800;2022-07-30T01:33:09;20.90;99.90
5848;DHT22;8756;49.29324300;8.70599800;2022-07-30T01:35:36;20.90;99.90
5848;DHT22;8756;49.29324300;8.70599800;2022-07-30T01:38:04;20.80;99.90
5848;DHT22;8756;49.29324300;8.70599800;2022-07-30T01:40:31;20.70;99.90
5848;DHT22;8756;49.29324300;8.70599800;2022-07-30T01:42:58;20.70;99.90
5848;DHT22;8756;49.29324300;8.70599800;2022-07-30T01:45:28;20.60;99.90
5848;DHT22;8756;49.29324300;8.70599800;2022-07-30T01:47:58;20.60;99.90
5848;DHT22;8756;49.29324300;8.70599800;2022-07-30T01:50:25;20.60;99.90
5848;DHT22;8756;49.29324300;8.70599800;2022-07-30T01:52:53;20.60;99.90
5848;DHT22;8756;49.29324300;8.70599800;2022-07-30T01:55:24;20.60;99.90
5848;DHT22;8756;49.29324300;8.70599800;2022-07-30T01:57:52;20.50;99.90
5848;DHT22;8756;49.29324300;8.70599800;2022-07-30T02:00:18;20.50;99.90
5848;DHT22;8756;49.29324300;8.70599800;2022-07-30T02:02:45;20.50;99.90
5848;DHT22;8756;49.29324300;8.70599800;2022-07-30T02:05:11;20.40;99.90
5848;DHT22;8756;49.29324300;8.70599800;2022-07-30T02:07:38;20.40;99.90
5848;DHT22;8756;49.29324300;8.70599800;2022-07-30T02:10:13;20.30;99.90
5848;DHT22;8756;49.29324300;8.70599800;2022-07-30T02:12:49;20.30;99.90
5848;DHT22;8756;49.29324300;8.70599800;2022-07-30T02:15:27;20.30;99.90
5848;DHT22;8756;49.29324300;8.70599800;2022-07-30T02:18:15;20.20;99.90
5848;DHT22;8756;49.29324300;8.70599800;2022-07-30T02:20:44;20.20;99.90
5848;DHT22;8756;49.29324300;8.70599800;2022-07-30T02:23:14;20.10;99.90
5848;DHT22;8756;49.29324300;8.70599800;2022-07-30T02:25:43;20.10;99.90
5848;DHT22;8756;49.29324300;8.70599800;2022-07-30T02:28:13;20.10;99.90
5848;DHT22;8756;49.29324300;8.70599800;2022-07-30T02:31:00;20.00;99.90
5848;DHT22;8756;49.29324300;8.70599800;2022-07-30T02:33:33;20.00;99.90
5848;DHT22;8756;49.29324300;8.70599800;2022-07-30T02:36:01;20.00;99.90
5848;DHT22;8756;49.29324300;8.70599800;2022-07-30T02:38:28;20.00;99.90
5848;DHT22;8756;49.29324300;8.70599800;2022-07-30T02:40:56;20.00;99.90
5848;DHT22;8756;49.29324300;8.70599800;2022-07-30T02:43:24;19.90;99.90
5848;DHT22;8756;49.29324300;8.70599800;2022-07-30T02:45:51;19.90;99.90
5848;DHT22;8756;49.29324300;8.70599800;2022-07-30T02:48:21;19.90;99.90
5848;DHT22;8756;49.29324300;8.70599800;2022-07-30T02:50:49;19.80;99.90
5848;DHT22;8756;49.29324300;8.70599800;2022-07-30T02:53:17;19.80;99.90
5848;DHT22;8756;49.29324300;8.70599800;2022-07-30T02:55:44;19.70;99.90
5848;DHT22;8756;49.29324300;8.70599800;2022-07-30T02:58:15;19.70;99.90
5848;DHT22;8756;49.29324300;8.70599800;2022-07-30T03:00:42;19.70;99.90
5848;DHT22;8756;49.29324300;8.70599800;2022-07-30T03:03:09;19.70;99.90
5848;DHT22;8756;49.29324300;8.70599800;2022-07-30T03:05:37;19.70;99.90
5848;DHT22;8756;49.29324300;8.70599800;2022-07-30T03:08:04;19.70;99.90
5848;DHT22;8756;49.29324300;8.70599800;2022-07-30T03:10:30;19.70;99.90
5848;DHT22;8756;49.29324300;8.70599800;2022-07-30T03:12:57;19.70;99.90
5848;DHT22;8756;49.29324300;8.70599800;2022-07-30T03:15:24;19.70;99.90
5848;DHT22;8756;49.29324300;8.70599800;2022-07-30T03:17:52;19.70;99.90
5848;DHT22;8756;49.29324300;8.70599800;2022-07-30T03:20:22;19.70;99.90
5848;DHT22;8756;49.29324300;8.70599800;2022-07-30T03:22:52;19.60;99.90
5848;DHT22;8756;49.29324300;8.70599800;2022-07-30T03:25:25;19.60;99.90
5848;DHT22;8756;49.29324300;8.70599800;2022-07-30T03:27:52;19.60;99.90
5848;DHT22;8756;49.29324300;8.70599800;2022-07-30T03:30:18;19.50;99.90
5848;DHT22;8756;49.29324300;8.70599800;2022-07-30T03:32:44;19.50;99.90
5848;DHT22;8756;49.29324300;8.70599800;2022-07-30T03:35:11;19.50;99.90
5848;DHT22;8756;49.29324300;8.70599800;2022-07-30T03:37:39;19.50;99.90
5848;DHT22;8756;49.29324300;8.70599800;2022-07-30T03:40:06;19.50;99.90
5848;DHT22;8756;49.29324300;8.70599800;2022-07-30T03:42:32;19.40;99.90
5848;DHT22;8756;49.29324300;8.70599800;2022-07-30T03:45:04;19.40;99.90
5848;DHT22;8756;49.29324300;8.70599800;2022-07-30T03:47:32;19.40;99.90
5848;DHT22;8756;49.29324300;8.70599800;2022-07-30T03:49:58;19.40;99.90
5848;DHT22;8756;49.29324300;8.70599800;2022-07-30T03:52:25;19.40;99.90
5848;DHT22;8756;49.29324300;8.70599800;2022-07-30T03:54:52;19.40;99.90
5848;DHT22;8756;49.29324300;8.70599800;2022-07-30T03:57:18;19.30;99.90
5848;DHT22;8756;49.29324300;8.70599800;2022-07-30T03:59:44;19.30;99.90
5848;DHT22;8756;49.29324300;8.70599800;2022-07-30T04:02:11;19.30;99.90
5848;DHT22;8756;49.29324300;8.70599800;2022-07-30T04:04:41;19.30;99.90
5848;DHT22;8756;49.29324300;8.70599800;2022-07-30T04:07:07;19.30;99.90
5848;DHT22;8756;49.29324300;8.70599800;2022-07-30T04:09:33;19.30;99.90
5848;DHT22;8756;49.29324300;8.70599800;2022-07-30T04:11:58;19.30;99.90
5848;DHT22;8756;49.29324300;8.70599800;2022-07-30T04:14:24;19.20;99.90
5848;DHT22;8756;49.29324300;8.70599800;2022-07-30T04:16:59;19.20;99.90
5848;DHT22;8756;49.29324300;8.70599800;2022-07-30T04:19:34;19.20;99.90
5848;DHT22;8756;49.29324300;8.70599800;2022-07-30T04:22:02;19.20;99.90
5848;DHT22;8756;49.29324300;8.70599800;2022-07-30T04:24:30;19.20;99.90
5848;DHT22;8756;49.29324300;8.70599800;2022-07-30T04:26:59;19.20;99.90
5848;DHT22;8756;49.29324300;8.70599800;2022-07-30T04:29:24;19.10;99.90
5848;DHT22;8756;49.29324300;8.70599800;2022-07-30T04:31:52;19.20;99.90
5848;DHT22;8756;49.29324300;8.70599800;2022-07-30T04:34:18;19.10;99.90
5848;DHT22;8756;49.29324300;8.70599800;2022-07-30T04:36:43;19.20;99.90
5848;DHT22;8756;49.29324300;8.70599800;2022-07-30T04:39:09;19.10;99.90
5848;DHT22;8756;49.29324300;8.70599800;2022-07-30T04:41:35;19.10;99.90
5848;DHT22;8756;49.29324300;8.70599800;2022-07-30T04:44:01;19.10;99.90
5848;DHT22;8756;49.29324300;8.70599800;2022-07-30T04:46:27;19.10;99.90
5848;DHT22;8756;49.29324300;8.70599800;2022-07-30T04:48:53;19.10;99.90
5848;DHT22;8756;49.29324300;8.70599800;2022-07-30T04:51:24;19.10;99.90
5848;DHT22;8756;49.29324300;8.70599800;2022-07-30T04:53:52;19.10;99.90
5848;DHT22;8756;49.29324300;8.70599800;2022-07-30T04:56:20;19.10;99.90
5848;DHT22;8756;49.29324300;8.70599800;2022-07-30T04:58:46;19.20;99.90
5848;DHT22;8756;49.29324300;8.70599800;2022-07-30T05:01:17;19.20;99.90
5848;DHT22;8756;49.29324300;8.70599800;2022-07-30T05:03:46;19.20;99.90
5848;DHT22;8756;49.29324300;8.70599800;2022-07-30T05:06:14;19.20;99.90
5848;DHT22;8756;49.29324300;8.70599800;2022-07-30T05:08:41;19.30;99.90
5848;DHT22;8756;49.29324300;8.70599800;2022-07-30T05:11:11;19.30;99.90
5848;DHT22;8756;49.29324300;8.70599800;2022-07-30T05:13:36;19.30;99.90
5848;DHT22;8756;49.29324300;8.70599800;2022-07-30T05:16:02;19.30;99.90
5848;DHT22;8756;49.29324300;8.70599800;2022-07-30T05:18:28;19.30;99.90
5848;DHT22;8756;49.29324300;8.70599800;2022-07-30T05:20:53;19.30;99.90
5848;DHT22;8756;49.29324300;8.70599800;2022-07-30T05:23:19;19.40;99.90
5848;DHT22;8756;49.29324300;8.70599800;2022-07-30T05:25:44;19.40;99.90
5848;DHT22;8756;49.29324300;8.70599800;2022-07-30T05:28:10;19.50;99.90
5848;DHT22;8756;49.29324300;8.70599800;2022-07-30T05:30:36;19.40;99.90
5848;DHT22;8756;49.29324300;8.70599800;2022-07-30T05:33:02;19.50;99.90
5848;DHT22;8756;49.29324300;8.70599800;2022-07-30T05:35:27;19.50;99.90
5848;DHT22;8756;49.29324300;8.70599800;2022-07-30T05:37:53;19.50;99.90
5848;DHT22;8756;49.29324300;8.70599800;2022-07-30T05:40:18;19.60;99.90
5848;DHT22;8756;49.29324300;8.70599800;2022-07-30T05:42:44;19.60;99.90
5848;DHT22;8756;49.29324300;8.70599800;2022-07-30T05:45:10;19.60;99.90
5848;DHT22;8756;49.29324300;8.70599800;2022-07-30T05:47:36;19.60;99.90
5848;DHT22;8756;49.29324300;8.70599800;2022-07-30T05:50:01;19.70;99.90
5848;DHT22;8756;49.29324300;8.70599800;2022-07-30T05:52:27;19.70;99.90
5848;DHT22;8756;49.29324300;8.70599800;2022-07-30T05:54:53;19.70;99.90
5848;DHT22;8756;49.29324300;8.70599800;2022-07-30T05:57:18;19.80;99.90
5848;DHT22;8756;49.29324300;8.70599800;2022-07-30T05:59:44;19.90;99.90
5848;DHT22;8756;49.29324300;8.70599800;2022-07-30T06:02:11;19.90;99.90
5848;DHT22;8756;49.29324300;8.70599800;2022-07-30T06:04:37;20.00;99.90
5848;DHT22;8756;49.29324300;8.70599800;2022-07-30T06:07:02;20.10;99.90
5848;DHT22;8756;49.29324300;8.70599800;2022-07-30T06:09:28;20.20;99.90
5848;DHT22;8756;49.29324300;8.70599800;2022-07-30T06:11:54;20.30;99.90
5848;DHT22;8756;49.29324300;8.70599800;2022-07-30T06:14:19;20.40;99.90
5848;DHT22;8756;49.29324300;8.70599800;2022-07-30T06:16:45;20.40;99.90
5848;DHT22;8756;49.29324300;8.70599800;2022-07-30T06:19:11;20.50;99.90
5848;DHT22;8756;49.29324300;8.70599800;2022-07-30T06:21:36;20.60;99.90
5848;DHT22;8756;49.29324300;8.70599800;2022-07-30T06:24:02;20.70;99.90
5848;DHT22;8756;49.29324300;8.70599800;2022-07-30T06:26:27;20.80;99.90
5848;DHT22;8756;49.29324300;8.70599800;2022-07-30T06:28:53;20.90;99.90
5848;DHT22;8756;49.29324300;8.70599800;2022-07-30T06:31:18;20.90;99.90
5848;DHT22;8756;49.29324300;8.70599800;2022-07-30T06:33:44;20.90;99.90
5848;DHT22;8756;49.29324300;8.70599800;2022-07-30T06:36:10;21.00;99.90
5848;DHT22;8756;49.29324300;8.70599800;2022-07-30T06:38:35;21.00;99.90
5848;DHT22;8756;49.29324300;8.70599800;2022-07-30T06:41:01;21.10;99.90
5848;DHT22;8756;49.29324300;8.70599800;2022-07-30T06:43:26;21.10;99.90
5848;DHT22;8756;49.29324300;8.70599800;2022-07-30T06:45:52;21.10;99.90
5848;DHT22;8756;49.29324300;8.70599800;2022-07-30T06:48:18;21.10;99.90
5848;DHT22;8756;49.29324300;8.70599800;2022-07-30T06:50:43;21.20;99.90
5848;DHT22;8756;49.29324300;8.70599800;2022-07-30T06:53:09;21.30;99.90
5848;DHT22;8756;49.29324300;8.70599800;2022-07-30T06:55:35;21.30;99.90
5848;DHT22;8756;49.29324300;8.70599800;2022-07-30T06:58:00;21.40;99.90
5848;DHT22;8756;49.29324300;8.70599800;2022-07-30T07:00:26;21.40;99.90
5848;DHT22;8756;49.29324300;8.70599800;2022-07-30T07:02:51;21.40;99.90
5848;DHT22;8756;49.29324300;8.70599800;2022-07-30T07:05:17;21.50;99.90
5848;DHT22;8756;49.29324300;8.70599800;2022-07-30T07:07:43;21.50;99.90
5848;DHT22;8756;49.29324300;8.70599800;2022-07-30T07:10:09;21.70;99.90
5848;DHT22;8756;49.29324300;8.70599800;2022-07-30T07:12:35;21.70;99.90
5848;DHT22;8756;49.29324300;8.70599800;2022-07-30T07:15:00;21.80;99.90
5848;DHT22;8756;49.29324300;8.70599800;2022-07-30T07:17:26;21.90;99.90
5848;DHT22;8756;49.29324300;8.70599800;2022-07-30T07:19:52;22.00;99.90
5848;DHT22;8756;49.29324300;8.70599800;2022-07-30T07:22:18;22.00;99.90
5848;DHT22;8756;49.29324300;8.70599800;2022-07-30T07:24:43;22.00;99.90
5848;DHT22;8756;49.29324300;8.70599800;2022-07-30T07:27:09;22.00;99.90
5848;DHT22;8756;49.29324300;8.70599800;2022-07-30T07:29:35;22.10;99.90
5848;DHT22;8756;49.29324300;8.70599800;2022-07-30T07:32:00;22.10;99.90
5848;DHT22;8756;49.29324300;8.70599800;2022-07-30T07:34:26;22.20;99.90
5848;DHT22;8756;49.29324300;8.70599800;2022-07-30T07:36:51;22.20;99.90
5848;DHT22;8756;49.29324300;8.70599800;2022-07-30T07:39:17;22.20;99.90
5848;DHT22;8756;49.29324300;8.70599800;2022-07-30T07:41:42;22.20;99.90
5848;DHT22;8756;49.29324300;8.70599800;2022-07-30T07:44:08;22.30;99.90
5848;DHT22;8756;49.29324300;8.70599800;2022-07-30T07:46:34;22.40;99.90
5848;DHT22;8756;49.29324300;8.70599800;2022-07-30T07:48:59;22.50;99.90
5848;DHT22;8756;49.29324300;8.70599800;2022-07-30T07:51:25;22.50;99.90
5848;DHT22;8756;49.29324300;8.70599800;2022-07-30T07:53:50;22.50;99.90
5848;DHT22;8756;49.29324300;8.70599800;2022-07-30T07:56:16;22.50;99.90
5848;DHT22;8756;49.29324300;8.70599800;2022-07-30T07:58:42;22.50;99.90
5848;DHT22;8756;49.29324300;8.70599800;2022-07-30T08:01:07;22.50;99.90
5848;DHT22;8756;49.29324300;8.70599800;2022-07-30T08:03:33;22.60;99.90
5848;DHT22;8756;49.29324300;8.70599800;2022-07-30T08:05:59;22.60;99.90
5848;DHT22;8756;49.29324300;8.70599800;2022-07-30T08:08:25;22.60;99.90
5848;DHT22;8756;49.29324300;8.70599800;2022-07-30T08:10:51;22.60;99.90
5848;DHT22;8756;49.29324300;8.70599800;2022-07-30T08:13:17;22.60;99.90
5848;DHT22;8756;49.29324300;8.70599800;2022-07-30T08:15:43;22.70;99.90
5848;DHT22;8756;49.29324300;8.70599800;2022-07-30T08:18:08;22.70;99.90
5848;DHT22;8756;49.29324300;8.70599800;2022-07-30T08:20:35;22.80;99.90
5848;DHT22;8756;49.29324300;8.70599800;2022-07-30T08:23:02;22.80;99.90
5848;DHT22;8756;49.29324300;8.70599800;2022-07-30T08:25:28;22.80;99.90
5848;DHT22;8756;49.29324300;8.70599800;2022-07-30T08:27:54;22.90;99.90
5848;DHT22;8756;49.29324300;8.70599800;2022-07-30T08:30:20;22.90;99.90
5848;DHT22;8756;49.29324300;8.70599800;2022-07-30T08:32:46;22.90;99.90
5848;DHT22;8756;49.29324300;8.70599800;2022-07-30T08:35:12;22.90;99.90
5848;DHT22;8756;49.29324300;8.70599800;2022-07-30T08:37:37;22.90;99.90
5848;DHT22;8756;49.29324300;8.70599800;2022-07-30T08:40:06;22.90;99.90
5848;DHT22;8756;49.29324300;8.70599800;2022-07-30T08:42:34;22.90;99.90
5848;DHT22;8756;49.29324300;8.70599800;2022-07-30T08:45:00;22.90;99.90
5848;DHT22;8756;49.29324300;8.70599800;2022-07-30T08:47:33;22.90;99.90
5848;DHT22;8756;49.29324300;8.70599800;2022-07-30T08:50:00;23.00;99.90
5848;DHT22;8756;49.29324300;8.70599800;2022-07-30T08:52:36;23.00;99.90
5848;DHT22;8756;49.29324300;8.70599800;2022-07-30T08:55:03;23.10;99.90
5848;DHT22;8756;49.29324300;8.70599800;2022-07-30T08:57:30;23.20;99.90
5848;DHT22;8756;49.29324300;8.70599800;2022-07-30T09:00:00;23.30;99.90
5848;DHT22;8756;49.29324300;8.70599800;2022-07-30T09:02:26;23.30;99.90
5848;DHT22;8756;49.29324300;8.70599800;2022-07-30T09:04:54;23.30;99.90
5848;DHT22;8756;49.29324300;8.70599800;2022-07-30T09:07:20;23.30;99.90
5848;DHT22;8756;49.29324300;8.70599800;2022-07-30T09:09:45;23.40;99.90
5848;DHT22;8756;49.29324300;8.70599800;2022-07-30T09:12:39;23.40;99.90
5848;DHT22;8756;49.29324300;8.70599800;2022-07-30T09:15:18;23.50;99.90
5848;DHT22;8756;49.29324300;8.70599800;2022-07-30T09:17:57;23.50;99.90
5848;DHT22;8756;49.29324300;8.70599800;2022-07-30T09:22:57;23.60;99.90
5848;DHT22;8756;49.29324300;8.70599800;2022-07-30T09:25:38;23.70;99.90
5848;DHT22;8756;49.29324300;8.70599800;2022-07-30T09:28:05;23.70;99.90
5848;DHT22;8756;49.29324300;8.70599800;2022-07-30T09:30:52;23.80;99.90
5848;DHT22;8756;49.29324300;8.70599800;2022-07-30T09:33:41;24.00;99.90
5848;DHT22;8756;49.29324300;8.70599800;2022-07-30T09:36:09;24.00;99.90
5848;DHT22;8756;49.29324300;8.70599800;2022-07-30T09:38:43;24.10;99.90
5848;DHT22;8756;49.29324300;8.70599800;2022-07-30T09:41:09;24.20;99.90
5848;DHT22;8756;49.29324300;8.70599800;2022-07-30T09:43:51;24.20;99.90
5848;DHT22;8756;49.29324300;8.70599800;2022-07-30T09:46:17;24.20;99.90
5848;DHT22;8756;49.29324300;8.70599800;2022-07-30T09:48:43;24.20;99.90
5848;DHT22;8756;49.29324300;8.70599800;2022-07-30T09:51:11;24.20;99.70
5848;DHT22;8756;49.29324300;8.70599800;2022-07-30T09:53:52;24.30;99.50
5848;DHT22;8756;49.29324300;8.70599800;2022-07-30T09:56:26;24.30;99.70
5848;DHT22;8756;49.29324300;8.70599800;2022-07-30T09:58:52;24.30;99.80
5848;DHT22;8756;49.29324300;8.70599800;2022-07-30T10:01:17;24.30;98.90
5848;DHT22;8756;49.29324300;8.70599800;2022-07-30T10:03:43;24.20;98.60
5848;DHT22;8756;49.29324300;8.70599800;2022-07-30T10:06:10;24.20;98.80
5848;DHT22;8756;49.29324300;8.70599800;2022-07-30T10:08:44;24.20;98.40
5848;DHT22;8756;49.29324300;8.70599800;2022-07-30T10:11:19;24.20;98.10
5848;DHT22;8756;49.29324300;8.70599800;2022-07-30T10:13:48;24.20;98.30
5848;DHT22;8756;49.29324300;8.70599800;2022-07-30T10:16:14;24.20;98.30
5848;DHT22;8756;49.29324300;8.70599800;2022-07-30T10:18:43;24.20;98.20
5848;DHT22;8756;49.29324300;8.70599800;2022-07-30T10:21:09;24.30;98.00
5848;DHT22;8756;49.29324300;8.70599800;2022-07-30T10:23:35;24.30;98.40
5848;DHT22;8756;49.29324300;8.70599800;2022-07-30T10:26:02;24.40;98.90
5848;DHT22;8756;49.29324300;8.70599800;2022-07-30T10:28:29;24.50;99.70
5848;DHT22;8756;49.29324300;8.70599800;2022-07-30T10:30:58;24.60;99.50
5848;DHT22;8756;49.29324300;8.70599800;2022-07-30T10:33:27;24.70;98.80
5848;DHT22;8756;49.29324300;8.70599800;2022-07-30T10:35:53;24.80;97.80
5848;DHT22;8756;49.29324300;8.70599800;2022-07-30T10:38:30;24.80;97.20
5848;DHT22;8756;49.29324300;8.70599800;2022-07-30T10:49:07;24.90;97.20
5848;DHT22;8756;49.29324300;8.70599800;2022-07-30T10:51:45;25.00;97.80
5848;DHT22;8756;49.29324300;8.70599800;2022-07-30T11:02:24;25.20;96.70
5848;DHT22;8756;49.29324300;8.70599800;2022-07-30T11:07:42;25.40;96.00
5848;DHT22;8756;49.29324300;8.70599800;2022-07-30T11:10:37;25.50;95.70
5848;DHT22;8756;49.29324300;8.70599800;2022-07-30T11:13:05;25.60;95.10
5848;DHT22;8756;49.29324300;8.70599800;2022-07-30T11:15:55;25.60;95.60
5848;DHT22;8756;49.29324300;8.70599800;2022-07-30T11:18:22;25.70;94.70
5848;DHT22;8756;49.29324300;8.70599800;2022-07-30T11:23:39;25.60;93.50
5848;DHT22;8756;49.29324300;8.70599800;2022-07-30T11:26:05;25.60;94.10
5848;DHT22;8756;49.29324300;8.70599800;2022-07-30T11:28:36;25.60;93.30
5848;DHT22;8756;49.29324300;8.70599800;2022-07-30T11:31:03;25.70;93.10
5848;DHT22;8756;49.29324300;8.70599800;2022-07-30T11:33:29;25.70;92.70
5848;DHT22;8756;49.29324300;8.70599800;2022-07-30T11:36:05;25.80;93.30
5848;DHT22;8756;49.29324300;8.70599800;2022-07-30T11:38:53;25.90;94.00
5848;DHT22;8756;49.29324300;8.70599800;2022-07-30T11:41:20;25.90;93.20
5848;DHT22;8756;49.29324300;8.70599800;2022-07-30T11:43:46;25.90;92.80
5848;DHT22;8756;49.29324300;8.70599800;2022-07-30T11:46:17;26.00;91.90
5848;DHT22;8756;49.29324300;8.70599800;2022-07-30T11:48:57;26.00;91.00
5848;DHT22;8756;49.29324300;8.70599800;2022-07-30T11:51:23;26.00;91.20
5848;DHT22;8756;49.29324300;8.70599800;2022-07-30T11:54:03;26.00;91.50
5848;DHT22;8756;49.29324300;8.70599800;2022-07-30T11:56:29;26.00;91.10
5848;DHT22;8756;49.29324300;8.70599800;2022-07-30T11:59:06;26.00;90.60
5848;DHT22;8756;49.29324300;8.70599800;2022-07-30T12:01:33;26.10;91.70
5848;DHT22;8756;49.29324300;8.70599800;2022-07-30T12:04:04;26.20;92.30
5848;DHT22;8756;49.29324300;8.70599800;2022-07-30T12:06:30;26.30;91.10
5848;DHT22;8756;49.29324300;8.70599800;2022-07-30T12:08:57;26.30;90.80
5848;DHT22;8756;49.29324300;8.70599800;2022-07-30T12:11:23;26.20;91.10
5848;DHT22;8756;49.29324300;8.70599800;2022-07-30T12:13:57;26.20;91.40
5848;DHT22;8756;49.29324300;8.70599800;2022-07-30T12:16:25;26.10;91.70
5848;DHT22;8756;49.29324300;8.70599800;2022-07-30T12:18:51;26.20;90.80
5848;DHT22;8756;49.29324300;8.70599800;2022-07-30T12:21:16;26.20;91.20
5848;DHT22;8756;49.29324300;8.70599800;2022-07-30T12:23:57;26.30;90.40
5848;DHT22;8756;49.29324300;8.70599800;2022-07-30T12:26:29;26.40;90.50
5848;DHT22;8756;49.29324300;8.70599800;2022-07-30T12:28:58;26.40;90.00
5848;DHT22;8756;49.29324300;8.70599800;2022-07-30T12:31:25;26.40;90.00
5848;DHT22;8756;49.29324300;8.70599800;2022-07-30T12:33:51;26.30;89.80
5848;DHT22;8756;49.29324300;8.70599800;2022-07-30T12:36:31;26.30;88.60
5848;DHT22;8756;49.29324300;8.70599800;2022-07-30T12:38:58;26.40;87.90
5848;DHT22;8756;49.29324300;8.70599800;2022-07-30T12:41:44;26.40;87.70
5848;DHT22;8756;49.29324300;8.70599800;2022-07-30T12:44:10;26.40;88.50
5848;DHT22;8756;49.29324300;8.70599800;2022-07-30T12:46:55;26.50;88.70
5848;DHT22;8756;49.29324300;8.70599800;2022-07-30T12:49:27;26.50;88.40
5848;DHT22;8756;49.29324300;8.70599800;2022-07-30T12:51:53;26.60;85.40
5848;DHT22;8756;49.29324300;8.70599800;2022-07-30T12:54:19;26.70;85.20
5848;DHT22;8756;49.29324300;8.70599800;2022-07-30T12:57:02;26.70;85.30
5848;DHT22;8756;49.29324300;8.70599800;2022-07-30T12:59:29;26.70;84.10
5848;DHT22;8756;49.29324300;8.70599800;2022-07-30T13:01:55;26.60;84.20
5848;DHT22;8756;49.29324300;8.70599800;2022-07-30T13:04:28;26.60;83.80
5848;DHT22;8756;49.29324300;8.70599800;2022-07-30T13:07:11;26.60;83.60
5848;DHT22;8756;49.29324300;8.70599800;2022-07-30T13:09:37;26.50;83.70
5848;DHT22;8756;49.29324300;8.70599800;2022-07-30T13:12:05;26.50;83.50
5848;DHT22;8756;49.29324300;8.70599800;2022-07-30T13:14:31;26.60;82.90
5848;DHT22;8756;49.29324300;8.70599800;2022-07-30T13:16:57;26.60;79.80
5848;DHT22;8756;49.29324300;8.70599800;2022-07-30T13:19:23;26.70;80.20
5848;DHT22;8756;49.29324300;8.70599800;2022-07-30T13:21:49;26.70;79.90
5848;DHT22;8756;49.29324300;8.70599800;2022-07-30T13:24:16;26.70;80.30
5848;DHT22;8756;49.29324300;8.70599800;2022-07-30T13:26:41;26.60;81.00
5848;DHT22;8756;49.29324300;8.70599800;2022-07-30T13:29:07;26.60;80.60
5848;DHT22;8756;49.29324300;8.70599800;2022-07-30T13:31:34;26.50;80.90
5848;DHT22;8756;49.29324300;8.70599800;2022-07-30T13:34:00;26.50;81.50
5848;DHT22;8756;49.29324300;8.70599800;2022-07-30T13:36:26;26.50;80.80
5848;DHT22;8756;49.29324300;8.70599800;2022-07-30T13:38:52;26.60;81.80
5848;DHT22;8756;49.29324300;8.70599800;2022-07-30T13:41:18;26.70;82.20
5848;DHT22;8756;49.29324300;8.70599800;2022-07-30T13:43:45;26.80;81.10
5848;DHT22;8756;49.29324300;8.70599800;2022-07-30T13:46:10;26.80;81.10
5848;DHT22;8756;49.29324300;8.70599800;2022-07-30T13:48:36;26.90;80.60
5848;DHT22;8756;49.29324300;8.70599800;2022-07-30T13:51:03;26.90;81.10
5848;DHT22;8756;49.29324300;8.70599800;2022-07-30T13:53:29;26.90;80.00
5848;DHT22;8756;49.29324300;8.70599800;2022-07-30T13:55:55;26.90;80.20
5848;DHT22;8756;49.29324300;8.70599800;2022-07-30T13:58:21;26.90;80.30
5848;DHT22;8756;49.29324300;8.70599800;2022-07-30T14:00:47;26.90;79.50
5848;DHT22;8756;49.29324300;8.70599800;2022-07-30T14:03:13;26.80;78.70
5848;DHT22;8756;49.29324300;8.70599800;2022-07-30T14:05:40;26.90;79.60
5848;DHT22;8756;49.29324300;8.70599800;2022-07-30T14:08:07;26.90;80.00
5848;DHT22;8756;49.29324300;8.70599800;2022-07-30T14:10:33;26.90;78.70
5848;DHT22;8756;49.29324300;8.70599800;2022-07-30T14:13:01;26.90;79.10
5848;DHT22;8756;49.29324300;8.70599800;2022-07-30T14:15:28;26.90;78.00
5848;DHT22;8756;49.29324300;8.70599800;2022-07-30T14:17:55;26.90;78.40